Time;durP1;ratioP1;P1;durP2;ratioP2;P2;SDS_P1;SDS_P2;PMS_P1;PMS_P2;Temp;Humidity;BMP_temperature;BMP_pressure;BME280_temperature;BME280_humidity;BME280_pressure;Samples;Min_cycle;Max_cycle;Signal;HPM_P1;HPM_P2
2022/03/12 00:00:30;;;;;;;1999.90;999.90;;;10.30;22.40;;;;;;5092205;28;20243;-72
2022/03/12 00:02:56;;;;;;;1999.90;999.90;;;10.40;22.70;;;;;;5092223;28;20404;-72
2022/03/12 00:05:23;;;;;;;1999.90;999.90;;;10.40;23.30;;;;;;5092038;28;20484;-72
2022/03/12 00:07:51;;;;;;;1999.90;999.90;;;10.40;23.30;;;;;;5092455;28;20920;-72
2022/03/12 00:10:18;;;;;;;1999.90;999.90;;;10.50;23.00;;;;;;5092193;28;20450;-72
2022/03/12 00:12:43;;;;;;;1999.90;999.90;;;10.40;22.90;;;;;;5092035;28;20418;-72
2022/03/12 00:15:11;;;;;;;1999.90;999.90;;;10.40;22.70;;;;;;5091822;28;20401;-72
2022/03/12 00:17:45;;;;;;;1999.90;999.90;;;10.40;22.30;;;;;;5092358;28;20189;-72
2022/03/12 00:20:16;;;;;;;1999.90;999.90;;;10.40;22.40;;;;;;5092176;28;20491;-72
2022/03/12 00:22:46;;;;;;;1999.90;999.90;;;10.30;22.00;;;;;;5092381;28;20404;-72
2022/03/12 00:25:22;;;;;;;1999.90;999.90;;;10.30;22.50;;;;;;5091769;28;20449;-72
2022/03/12 00:27:50;;;;;;;1999.90;999.90;;;10.30;22.60;;;;;;5090834;28;20446;-72
2022/03/12 00:30:22;;;;;;;1999.90;999.90;;;10.30;22.10;;;;;;5092155;28;20510;-72
2022/03/12 00:32:48;;;;;;;1999.90;999.90;;;10.30;21.80;;;;;;5091019;28;20420;-72
2022/03/12 00:35:15;;;;;;;1999.90;999.90;;;10.30;22.20;;;;;;5091859;28;20415;-72
2022/03/12 00:37:41;;;;;;;1999.90;999.90;;;10.30;22.40;;;;;;5091933;28;20462;-72
2022/03/12 00:40:07;;;;;;;1999.90;999.90;;;10.30;22.40;;;;;;5091922;28;20450;-72
2022/03/12 00:42:32;;;;;;;1999.90;999.90;;;10.30;22.70;;;;;;5091987;28;20181;-72
2022/03/12 00:44:58;;;;;;;1999.90;999.90;;;10.30;22.50;;;;;;5091890;28;20777;-72
2022/03/12 00:47:24;;;;;;;1999.90;999.90;;;10.20;21.90;;;;;;5092073;28;20188;-72
2022/03/12 00:49:50;;;;;;;1999.90;999.90;;;10.30;22.80;;;;;;5091992;28;20260;-72
2022/03/12 00:52:19;;;;;;;1999.90;999.90;;;10.20;22.00;;;;;;5091784;28;20440;-72
2022/03/12 00:54:44;;;;;;;1999.90;999.90;;;10.20;22.20;;;;;;5091513;28;20183;-72
2022/03/12 00:57:12;;;;;;;1999.90;999.90;;;10.20;22.30;;;;;;5091441;28;20800;-72
2022/03/12 00:59:42;;;;;;;1999.90;999.90;;;10.30;22.40;;;;;;5091576;28;20189;-72
2022/03/12 01:02:14;;;;;;;1999.90;999.90;;;10.20;22.00;;;;;;5091556;28;20414;-72
2022/03/12 01:04:40;;;;;;;1999.90;999.90;;;10.20;22.10;;;;;;5091166;28;20468;-72
2022/03/12 01:07:05;;;;;;;1999.90;999.90;;;10.20;22.50;;;;;;5091382;28;20907;-72
2022/03/12 01:09:31;;;;;;;1999.90;999.90;;;10.20;22.20;;;;;;5092960;28;20406;-73
2022/03/12 01:11:57;;;;;;;1999.90;999.90;;;10.20;22.30;;;;;;5095740;28;20181;-72
2022/03/12 01:14:23;;;;;;;1999.90;999.90;;;10.10;22.00;;;;;;5095251;28;20173;-72
2022/03/12 01:16:49;;;;;;;1999.90;999.90;;;10.10;22.30;;;;;;5095452;28;20428;-71
2022/03/12 01:19:15;;;;;;;1999.90;999.90;;;10.10;22.30;;;;;;5095590;28;20463;-73
2022/03/12 01:21:41;;;;;;;1999.90;999.90;;;10.00;22.30;;;;;;5096075;28;20162;-72
2022/03/12 01:24:07;;;;;;;1999.90;999.90;;;10.00;22.30;;;;;;5095404;28;20423;-73
2022/03/12 01:26:36;;;;;;;1999.90;999.90;;;10.00;22.30;;;;;;5095755;28;20427;-73
2022/03/12 01:29:02;;;;;;;1999.90;999.90;;;9.90;23.30;;;;;;5095456;28;20408;-72
2022/03/12 01:31:28;;;;;;;1999.90;999.90;;;9.90;23.20;;;;;;5095474;28;20472;-72
2022/03/12 01:33:54;;;;;;;1999.90;999.90;;;9.90;23.10;;;;;;5095464;28;20429;-72
2022/03/12 01:36:19;;;;;;;1999.90;999.90;;;9.90;23.60;;;;;;5095137;28;20186;-72
2022/03/12 01:38:48;;;;;;;1999.90;999.90;;;9.80;23.00;;;;;;5095391;28;20636;-73
2022/03/12 01:41:18;;;;;;;1999.90;999.90;;;9.80;23.20;;;;;;5095222;28;20168;-72
2022/03/12 01:43:44;;;;;;;1999.90;999.90;;;9.90;23.60;;;;;;5095177;28;20448;-72
2022/03/12 01:46:10;;;;;;;1999.90;999.90;;;9.80;22.80;;;;;;5094541;28;20790;-72
2022/03/12 01:48:46;;;;;;;1999.90;999.90;;;9.90;23.00;;;;;;5094961;28;20166;-72
2022/03/12 01:51:13;;;;;;;1999.90;999.90;;;9.80;23.10;;;;;;5094742;28;20394;-73
2022/03/12 01:53:38;;;;;;;1999.90;999.90;;;9.80;23.20;;;;;;5094732;28;20545;-72
2022/03/12 01:56:04;;;;;;;1999.90;999.90;;;9.70;23.60;;;;;;5094473;28;20481;-73
2022/03/12 01:58:30;;;;;;;1999.90;999.90;;;9.80;23.80;;;;;;5094781;28;20161;-72
2022/03/12 02:00:57;;;;;;;1999.90;999.90;;;9.70;24.00;;;;;;5094602;28;20462;-72
2022/03/12 02:03:28;;;;;;;1999.90;999.90;;;9.70;23.70;;;;;;5094731;28;20393;-72
2022/03/12 02:05:58;;;;;;;1999.90;999.90;;;9.70;24.10;;;;;;5094454;28;20402;-72
2022/03/12 02:08:24;;;;;;;1999.90;999.90;;;9.70;23.70;;;;;;5094547;28;20542;-73
2022/03/12 02:10:50;;;;;;;1999.90;999.90;;;9.70;23.80;;;;;;5094203;28;20485;-72
2022/03/12 02:13:17;;;;;;;1999.90;999.90;;;9.60;23.70;;;;;;5094297;28;20403;-72
2022/03/12 02:15:43;;;;;;;1999.90;999.90;;;9.70;24.30;;;;;;5094147;28;20399;-72
2022/03/12 02:18:11;;;;;;;1999.90;999.90;;;9.70;24.20;;;;;;5094305;28;20426;-72
2022/03/12 02:20:38;;;;;;;1999.90;999.90;;;9.60;24.10;;;;;;5091728;28;20507;-72
2022/03/12 02:23:07;;;;;;;1999.90;999.90;;;9.60;24.50;;;;;;5094151;28;20410;-73
2022/03/12 02:25:34;;;;;;;1999.90;999.90;;;9.60;24.20;;;;;;5093905;28;20460;-72
2022/03/12 02:28:09;;;;;;;1999.90;999.90;;;9.60;24.30;;;;;;5093906;28;20451;-73
2022/03/12 02:30:48;;;;;;;1999.90;999.90;;;9.50;24.60;;;;;;5094254;28;20413;-72
2022/03/12 02:33:14;;;;;;;1999.90;999.90;;;9.60;24.90;;;;;;5094099;28;20405;-73
2022/03/12 02:35:42;;;;;;;1999.90;999.90;;;9.50;24.60;;;;;;5093831;28;20413;-73
2022/03/12 02:38:07;;;;;;;1999.90;999.90;;;9.60;24.90;;;;;;5094081;28;20446;-72
2022/03/12 02:40:34;;;;;;;1999.90;999.90;;;9.60;24.80;;;;;;5093877;28;20496;-72
2022/03/12 02:43:00;;;;;;;1999.90;999.90;;;9.50;25.00;;;;;;5094119;28;20164;-72
2022/03/12 02:45:28;;;;;;;1999.90;999.90;;;9.60;25.50;;;;;;5093830;28;20446;-72
2022/03/12 02:47:55;;;;;;;1999.90;999.90;;;9.60;25.60;;;;;;5093962;28;20421;-72
2022/03/12 02:50:22;;;;;;;1999.90;999.90;;;9.60;25.50;;;;;;5093811;28;20399;-72
2022/03/12 02:52:48;;;;;;;1999.90;999.90;;;9.60;25.70;;;;;;5093770;28;20492;-72
2022/03/12 02:55:18;;;;;;;1999.90;999.90;;;9.60;25.90;;;;;;5093297;28;20483;-72
2022/03/12 02:57:47;;;;;;;1999.90;999.90;;;9.60;25.90;;;;;;5093522;28;20199;-72
2022/03/12 03:00:16;;;;;;;1999.90;999.90;;;9.60;25.80;;;;;;5093777;28;20449;-72
2022/03/12 03:02:42;;;;;;;1999.90;999.90;;;9.70;26.10;;;;;;5093807;28;20857;-71
2022/03/12 03:05:13;;;;;;;1999.90;999.90;;;9.70;26.10;;;;;;5093422;28;20402;-72
2022/03/12 03:07:39;;;;;;;1999.90;999.90;;;9.70;26.60;;;;;;5093647;28;20418;-72
2022/03/12 03:10:05;;;;;;;1999.90;999.90;;;9.80;26.20;;;;;;5093391;28;20411;-72
2022/03/12 03:12:31;;;;;;;1999.90;999.90;;;9.80;26.00;;;;;;5093470;28;20406;-72
2022/03/12 03:14:57;;;;;;;1999.90;999.90;;;9.80;26.40;;;;;;5093151;28;20459;-72
2022/03/12 03:17:28;;;;;;;1999.90;999.90;;;9.80;26.30;;;;;;5093568;28;20911;-72
2022/03/12 03:19:54;;;;;;;1999.90;999.90;;;9.80;26.90;;;;;;5093381;28;20199;-72
2022/03/12 03:22:19;;;;;;;1999.90;999.90;;;9.80;27.00;;;;;;5093264;28;20407;-72
2022/03/12 03:24:45;;;;;;;1999.90;999.90;;;9.80;27.00;;;;;;5093200;28;20406;-72
2022/03/12 03:27:11;;;;;;;1999.90;999.90;;;9.70;27.20;;;;;;5093133;28;20717;-72
2022/03/12 03:29:36;;;;;;;1999.90;999.90;;;9.70;28.00;;;;;;5093332;28;20172;-72
2022/03/12 03:32:02;;;;;;;1999.90;999.90;;;9.70;28.30;;;;;;5092793;28;20171;-72
2022/03/12 03:34:31;;;;;;;1999.90;999.90;;;9.70;28.20;;;;;;5092731;28;20197;-71
2022/03/12 03:36:57;;;;;;;1999.90;999.90;;;9.80;28.60;;;;;;5092846;28;20474;-72
2022/03/12 03:39:23;;;;;;;1999.90;999.90;;;9.80;28.50;;;;;;5093093;28;20486;-72
2022/03/12 03:41:49;;;;;;;1999.90;999.90;;;9.70;28.50;;;;;;5093235;28;20456;-71
2022/03/12 03:44:20;;;;;;;1999.90;999.90;;;9.70;28.80;;;;;;5092743;28;20176;-71
2022/03/12 03:46:46;;;;;;;1999.90;999.90;;;9.70;28.80;;;;;;5093093;28;20458;-72
2022/03/12 03:49:11;;;;;;;1999.90;999.90;;;9.70;29.30;;;;;;5092974;28;20411;-72
2022/03/12 03:51:42;;;;;;;1999.90;999.90;;;9.70;29.20;;;;;;5092929;28;20581;-72
2022/03/12 03:54:08;;;;;;;1999.90;999.90;;;9.70;29.40;;;;;;5092935;28;20196;-72
2022/03/12 03:56:34;;;;;;;1999.90;999.90;;;9.60;29.80;;;;;;5092815;28;20435;-72
2022/03/12 03:59:00;;;;;;;1999.90;999.90;;;9.60;29.90;;;;;;5092464;28;20426;-72
2022/03/12 04:01:26;;;;;;;1999.90;999.90;;;9.60;30.10;;;;;;5092671;28;20403;-72
2022/03/12 04:03:52;;;;;;;1999.90;999.90;;;9.60;30.20;;;;;;5092882;28;20170;-72
2022/03/12 04:06:21;;;;;;;1999.90;999.90;;;9.60;29.90;;;;;;5092503;28;20177;-71
2022/03/12 04:08:47;;;;;;;1999.90;999.90;;;9.60;30.40;;;;;;5092905;28;20403;-72
2022/03/12 04:11:16;;;;;;;1999.90;999.90;;;9.60;30.00;;;;;;5092793;28;20449;-72
2022/03/12 04:13:42;;;;;;;1999.90;999.90;;;9.70;30.00;;;;;;5092444;28;20434;-72
2022/03/12 04:16:09;;;;;;;1999.90;999.90;;;9.70;29.60;;;;;;5092642;28;20407;-72
2022/03/12 04:18:36;;;;;;;1999.90;999.90;;;9.70;29.90;;;;;;5092736;28;20414;-72
2022/03/12 04:21:05;;;;;;;1999.90;999.90;;;9.60;30.00;;;;;;5092654;28;20485;-72
2022/03/12 04:23:30;;;;;;;1999.90;999.90;;;9.60;30.00;;;;;;5092668;28;20418;-72
2022/03/12 04:25:58;;;;;;;1999.90;999.90;;;9.60;30.20;;;;;;5092239;28;20497;-72
2022/03/12 04:28:27;;;;;;;1999.90;999.90;;;9.60;30.70;;;;;;5092539;28;20497;-71
2022/03/12 04:30:53;;;;;;;1999.90;999.90;;;9.60;31.20;;;;;;5092577;28;20489;-72
2022/03/12 04:33:19;;;;;;;1999.90;999.90;;;9.60;31.50;;;;;;5092705;28;20438;-72
2022/03/12 04:35:47;;;;;;;1999.90;999.90;;;9.50;32.40;;;;;;5092240;28;20172;-72
2022/03/12 04:38:13;;;;;;;1999.90;999.90;;;9.50;32.50;;;;;;5092483;28;20588;-72
2022/03/12 04:40:41;;;;;;;1999.90;999.90;;;9.60;32.80;;;;;;5092747;28;20970;-72
2022/03/12 04:43:09;;;;;;;1999.90;999.90;;;9.50;32.30;;;;;;5092001;28;20398;-72
2022/03/12 04:45:36;;;;;;;1999.90;999.90;;;9.40;33.00;;;;;;5094544;28;20438;-72
2022/03/12 04:48:02;;;;;;;1999.90;999.90;;;9.30;33.50;;;;;;5095480;28;20501;-72
2022/03/12 04:50:27;;;;;;;1999.90;999.90;;;9.30;34.60;;;;;;5095527;28;20416;-72
2022/03/12 04:52:58;;;;;;;1999.90;999.90;;;9.10;35.40;;;;;;5095482;28;20407;-72
2022/03/12 04:55:26;;;;;;;1999.90;999.90;;;9.10;36.40;;;;;;5095283;28;20169;-72
2022/03/12 04:57:52;;;;;;;1999.90;999.90;;;9.00;37.50;;;;;;5095347;28;20571;-72
2022/03/12 05:00:23;;;;;;;1999.90;999.90;;;8.90;37.60;;;;;;5095215;28;20446;-72
2022/03/12 05:02:52;;;;;;;1999.90;999.90;;;8.90;38.30;;;;;;5095296;28;20484;-71
2022/03/12 05:05:18;;;;;;;1999.90;999.90;;;8.80;39.10;;;;;;5095000;28;20425;-71
2022/03/12 05:07:44;;;;;;;1999.90;999.90;;;8.70;39.10;;;;;;5095092;28;21189;-72
2022/03/12 05:10:17;;;;;;;1999.90;999.90;;;8.70;39.80;;;;;;5095134;28;20177;-72
2022/03/12 05:12:43;;;;;;;1999.90;999.90;;;8.60;40.50;;;;;;5095073;28;20411;-71
2022/03/12 05:15:13;;;;;;;1999.90;999.90;;;8.60;42.40;;;;;;5094799;28;20437;-71
2022/03/12 05:17:51;;;;;;;1999.90;999.90;;;8.50;43.40;;;;;;5094948;28;20802;-71
2022/03/12 05:20:22;;;;;;;1999.90;999.90;;;8.40;44.50;;;;;;5094921;28;20460;-72
2022/03/12 05:22:49;;;;;;;1999.90;999.90;;;8.50;46.20;;;;;;5094888;28;20932;-72
2022/03/12 05:25:18;;;;;;;1999.90;999.90;;;8.40;48.00;;;;;;5094735;28;20949;-71
2022/03/12 05:27:48;;;;;;;1999.90;999.90;;;8.40;50.50;;;;;;5094952;28;20906;-71
2022/03/12 05:30:14;;;;;;;1999.90;999.90;;;8.50;53.00;;;;;;5095137;28;20410;-71
2022/03/12 05:32:40;;;;;;;1999.90;999.90;;;8.50;56.10;;;;;;5094916;28;20405;-71
2022/03/12 05:35:06;;;;;;;1999.90;999.90;;;8.40;60.60;;;;;;5094469;28;20404;-71
2022/03/12 05:37:32;;;;;;;1999.90;999.90;;;8.40;68.70;;;;;;5094664;28;20300;-71
2022/03/12 05:39:58;;;;;;;1999.90;999.90;;;8.40;75.30;;;;;;5094785;28;20451;-71
2022/03/12 05:42:25;;;;;;;1999.90;999.90;;;8.40;85.70;;;;;;5094851;28;20413;-71
2022/03/12 05:44:56;;;;;;;1999.90;999.90;;;8.40;96.90;;;;;;5094363;28;20166;-71
2022/03/12 05:47:23;;;;;;;1999.90;999.90;;;8.50;99.90;;;;;;5094593;28;20832;-71
2022/03/12 05:49:49;;;;;;;1999.90;999.90;;;8.50;99.90;;;;;;5094547;28;20780;-71
2022/03/12 05:52:17;;;;;;;1999.90;999.90;;;8.50;99.90;;;;;;5094394;28;20831;-71
2022/03/12 05:54:47;;;;;;;1999.90;999.90;;;8.50;99.90;;;;;;5093865;28;20467;-72
2022/03/12 05:57:13;;;;;;;1999.90;999.90;;;8.40;99.90;;;;;;5094395;28;20465;-72
2022/03/12 05:59:38;;;;;;;1999.90;999.90;;;8.50;99.90;;;;;;5094335;28;20815;-71
2022/03/12 06:02:05;;;;;;;1999.90;999.90;;;8.50;99.90;;;;;;5093023;28;20416;-71
2022/03/12 06:04:32;;;;;;;1999.90;999.90;;;8.60;99.90;;;;;;5093901;28;20191;-72
2022/03/12 06:06:57;;;;;;;1999.90;999.90;;;8.60;99.90;;;;;;5094024;28;20857;-72
2022/03/12 06:09:23;;;;;;;1999.90;999.90;;;8.50;99.90;;;;;;5094037;28;20440;-71
2022/03/12 06:11:53;;;;;;;1999.90;999.90;;;8.50;99.90;;;;;;5094033;28;20249;-71
2022/03/12 06:14:19;;;;;;;1999.90;999.90;;;8.40;99.90;;;;;;5093839;28;20164;-72
2022/03/12 06:16:47;;;;;;;1999.90;999.90;;;8.50;99.90;;;;;;5093661;28;20428;-72
2022/03/12 06:19:13;;;;;;;1999.90;999.90;;;8.50;99.90;;;;;;5093778;28;20532;-71
2022/03/12 06:21:38;;;;;;;1999.90;999.90;;;8.60;99.90;;;;;;5093706;28;20487;-71
2022/03/12 06:24:04;;;;;;;1999.90;999.90;;;8.70;99.90;;;;;;5093417;28;20260;-71
2022/03/12 06:26:35;;;;;;;1999.90;999.90;;;8.90;99.90;;;;;;5093664;28;20199;-71
2022/03/12 06:29:03;;;;;;;1999.90;999.90;;;9.00;99.90;;;;;;5093723;28;20407;-72
2022/03/12 06:31:29;;;;;;;1999.90;999.90;;;9.10;99.90;;;;;;5093508;28;20415;-72
2022/03/12 06:33:54;;;;;;;1999.90;999.90;;;9.20;99.90;;;;;;5093430;28;20419;-72
2022/03/12 06:36:22;;;;;;;1999.90;999.90;;;9.20;99.90;;;;;;5093093;28;20422;-71
2022/03/12 06:38:48;;;;;;;1999.90;999.90;;;9.30;99.90;;;;;;5093463;28;20161;-72
2022/03/12 06:41:13;;;;;;;1999.90;999.90;;;9.40;99.90;;;;;;5093342;28;20944;-71
2022/03/12 06:43:42;;;;;;;1999.90;999.90;;;9.30;99.90;;;;;;5093320;28;20160;-72
2022/03/12 06:46:14;;;;;;;1999.90;999.90;;;9.30;99.90;;;;;;5092929;28;20635;-71
2022/03/12 06:48:40;;;;;;;1999.90;999.90;;;9.30;99.90;;;;;;5093292;28;20416;-72
2022/03/12 06:51:06;;;;;;;1999.90;999.90;;;9.40;99.90;;;;;;5093173;28;20418;-72
2022/03/12 06:53:32;;;;;;;1999.90;999.90;;;9.40;99.90;;;;;;5093112;28;20410;-71
2022/03/12 06:55:58;;;;;;;1999.90;999.90;;;9.50;99.90;;;;;;5092818;28;20460;-71
2022/03/12 06:58:26;;;;;;;1999.90;999.90;;;9.50;99.90;;;;;;5092988;28;20509;-71
2022/03/12 07:00:51;;;;;;;1999.90;999.90;;;9.50;99.90;;;;;;5092895;28;20597;-71
2022/03/12 07:03:17;;;;;;;1999.90;999.90;;;9.60;99.90;;;;;;5092911;28;20435;-71
2022/03/12 07:05:43;;;;;;;1999.90;999.90;;;9.60;99.90;;;;;;5092871;28;20247;-72
2022/03/12 07:08:09;;;;;;;1999.90;999.90;;;9.60;99.90;;;;;;5092235;28;20188;-72
2022/03/12 07:10:35;;;;;;;1999.90;999.90;;;9.70;99.90;;;;;;5092900;28;20788;-72
2022/03/12 07:13:00;;;;;;;1999.90;999.90;;;9.70;99.90;;;;;;5092804;28;20173;-72
2022/03/12 07:15:26;;;;;;;1999.90;999.90;;;9.80;99.90;;;;;;5092434;28;20823;-72
2022/03/12 07:17:52;;;;;;;1999.90;999.90;;;9.90;99.90;;;;;;5092589;28;20587;-72
2022/03/12 07:20:18;;;;;;;1999.90;999.90;;;10.00;99.90;;;;;;5092639;28;20661;-72
2022/03/12 07:22:45;;;;;;;1999.90;999.90;;;10.00;99.90;;;;;;5092870;28;20178;-72
2022/03/12 07:25:12;;;;;;;1999.90;999.90;;;10.10;99.90;;;;;;5092332;28;20395;-71
2022/03/12 07:27:38;;;;;;;1999.90;999.90;;;10.10;99.90;;;;;;5092505;28;20530;-71
2022/03/12 07:30:08;;;;;;;1999.90;999.90;;;10.30;99.90;;;;;;5092496;28;20503;-72
2022/03/12 07:32:35;;;;;;;1999.90;999.90;;;10.40;99.90;;;;;;5092786;28;20180;-72
2022/03/12 07:35:01;;;;;;;1999.90;999.90;;;10.60;99.90;;;;;;5092120;28;20439;-72
2022/03/12 07:37:27;;;;;;;1999.90;999.90;;;10.70;99.90;;;;;;5092239;28;20482;-72
2022/03/12 07:39:53;;;;;;;1999.90;999.90;;;10.90;99.90;;;;;;5092283;28;20455;-72
2022/03/12 07:42:18;;;;;;;1999.90;999.90;;;11.00;99.90;;;;;;5092403;28;20532;-71
2022/03/12 07:44:44;;;;;;;1999.90;999.90;;;11.20;99.90;;;;;;5091922;28;20412;-71
2022/03/12 07:47:10;;;;;;;1999.90;999.90;;;11.30;99.90;;;;;;5092268;28;20189;-71
2022/03/12 07:49:36;;;;;;;1999.90;999.90;;;11.50;99.90;;;;;;5092208;28;20166;-71
2022/03/12 07:52:02;;;;;;;1999.90;999.90;;;11.40;99.90;;;;;;5092165;28;20174;-71
2022/03/12 07:54:28;;;;;;;1999.90;999.90;;;11.40;99.90;;;;;;5091920;28;20177;-71
2022/03/12 07:56:54;;;;;;;1999.90;999.90;;;11.40;99.90;;;;;;5092684;28;20530;-72
2022/03/12 07:59:20;;;;;;;1999.90;999.90;;;11.40;99.90;;;;;;5093147;28;20447;-72
2022/03/12 08:01:46;;;;;;;1999.90;999.90;;;11.50;99.90;;;;;;5093180;28;20635;-72
2022/03/12 08:04:11;;;;;;;1999.90;999.90;;;11.50;99.90;;;;;;5092853;28;20181;-71
2022/03/12 08:06:37;;;;;;;1999.90;999.90;;;11.40;99.90;;;;;;5093181;28;20795;-72
2022/03/12 08:09:03;;;;;;;1999.90;999.90;;;11.50;99.90;;;;;;5093125;28;20404;-72
2022/03/12 08:11:29;;;;;;;1999.90;999.90;;;11.70;99.90;;;;;;5093151;28;20173;-72
2022/03/12 08:14:01;;;;;;;1999.90;999.90;;;11.80;99.90;;;;;;5092305;28;20779;-71
2022/03/12 08:16:30;;;;;;;1999.90;999.90;;;11.90;99.90;;;;;;5092885;28;20432;-71
2022/03/12 08:18:56;;;;;;;1999.90;999.90;;;11.90;99.90;;;;;;5094666;28;20404;-71
2022/03/12 08:21:21;;;;;;;1999.90;999.90;;;11.90;99.90;;;;;;5096740;28;20409;-72
2022/03/12 08:23:49;;;;;;;1999.90;999.90;;;11.90;99.90;;;;;;5096692;28;20403;-71
2022/03/12 08:26:15;;;;;;;1999.90;999.90;;;12.00;99.90;;;;;;5096026;28;20220;-72
2022/03/12 08:28:41;;;;;;;1999.90;999.90;;;12.20;99.90;;;;;;5096381;28;20428;-72
2022/03/12 08:31:07;;;;;;;1999.90;999.90;;;12.30;99.90;;;;;;5096635;28;20412;-72
2022/03/12 08:33:34;;;;;;;1999.90;999.90;;;12.40;99.90;;;;;;5096359;28;20416;-72
2022/03/12 08:36:02;;;;;;;1999.90;999.90;;;12.50;99.90;;;;;;5095728;28;20189;-72
2022/03/12 08:38:28;;;;;;;1999.90;999.90;;;12.60;99.90;;;;;;5095964;28;20409;-71
2022/03/12 08:40:53;;;;;;;1999.90;999.90;;;12.70;99.90;;;;;;5095848;28;21009;-72
2022/03/12 08:43:21;;;;;;;1999.90;999.90;;;12.80;99.90;;;;;;5096314;28;20166;-72
2022/03/12 08:45:47;;;;;;;1999.90;999.90;;;12.80;99.90;;;;;;5095422;28;20162;-72
2022/03/12 08:48:13;;;;;;;1999.90;999.90;;;12.80;99.90;;;;;;5095896;28;20428;-72
2022/03/12 08:50:39;;;;;;;1999.90;999.90;;;12.80;99.90;;;;;;5096017;28;20763;-73
2022/03/12 08:53:04;;;;;;;1999.90;999.90;;;12.70;99.90;;;;;;5095595;28;20260;-73
2022/03/12 08:55:30;;;;;;;1999.90;999.90;;;12.80;99.90;;;;;;5095431;28;20175;-72
2022/03/12 08:57:56;;;;;;;1999.90;999.90;;;12.80;99.90;;;;;;5095449;28;20190;-72
2022/03/12 09:00:23;;;;;;;1999.90;999.90;;;12.90;99.90;;;;;;5096155;28;20228;-72
2022/03/12 09:02:49;;;;;;;1999.90;999.90;;;12.80;99.90;;;;;;5095548;28;20437;-72
2022/03/12 09:05:15;;;;;;;1999.90;999.90;;;12.80;99.90;;;;;;5095407;28;20400;-72
2022/03/12 09:07:43;;;;;;;1999.90;999.90;;;12.80;99.90;;;;;;5095690;28;20850;-72
2022/03/12 09:10:11;;;;;;;1999.90;999.90;;;12.90;99.90;;;;;;5095691;28;20257;-72
2022/03/12 09:12:41;;;;;;;1999.90;999.90;;;12.90;99.90;;;;;;5095692;28;20428;-72
2022/03/12 09:15:09;;;;;;;1999.90;999.90;;;13.10;99.90;;;;;;5095555;28;20954;-72
2022/03/12 09:17:35;;;;;;;1999.90;999.90;;;13.30;99.90;;;;;;5095522;28;20451;-72
2022/03/12 09:20:02;;;;;;;1999.90;999.90;;;13.30;99.90;;;;;;5095272;28;20492;-71
2022/03/12 09:22:28;;;;;;;1999.90;999.90;;;13.30;99.90;;;;;;5095250;28;20246;-72
2022/03/12 09:24:53;;;;;;;1999.90;999.90;;;13.30;99.90;;;;;;5095253;28;20416;-72
2022/03/12 09:27:19;;;;;;;1999.90;999.90;;;13.30;99.90;;;;;;5095575;28;20233;-71
2022/03/12 09:29:44;;;;;;;1999.90;999.90;;;13.40;99.90;;;;;;5094585;28;20513;-71
2022/03/12 09:32:10;;;;;;;1999.90;999.90;;;13.50;99.90;;;;;;5095020;28;20178;-72
2022/03/12 09:34:37;;;;;;;1999.90;999.90;;;13.40;99.90;;;;;;5095040;28;20584;-72
2022/03/12 09:37:05;;;;;;;1999.90;999.90;;;13.50;99.90;;;;;;5094694;28;20198;-71
2022/03/12 09:39:30;;;;;;;1999.90;999.90;;;13.80;99.90;;;;;;5094517;28;20455;-71
2022/03/12 09:41:57;;;;;;;1999.90;999.90;;;13.90;99.90;;;;;;5094501;28;20405;-72
2022/03/12 09:44:22;;;;;;;1999.90;999.90;;;14.00;99.90;;;;;;5094309;28;20222;-71
2022/03/12 09:46:48;;;;;;;1999.90;999.90;;;13.80;99.90;;;;;;5094403;28;20827;-71
2022/03/12 09:49:14;;;;;;;1999.90;999.90;;;13.90;99.90;;;;;;5094387;28;20266;-72
2022/03/12 09:51:40;;;;;;;1999.90;999.90;;;14.00;99.90;;;;;;5094339;28;20262;-71
2022/03/12 09:54:06;;;;;;;1999.90;999.90;;;14.10;99.90;;;;;;5093971;28;20251;-72
2022/03/12 09:56:31;;;;;;;1999.90;999.90;;;14.20;99.90;;;;;;5092158;28;20523;-70
2022/03/12 09:58:57;;;;;;;1999.90;999.90;;;14.20;99.90;;;;;;5093182;28;20906;-69
2022/03/12 10:01:23;;;;;;;1999.90;999.90;;;14.30;99.90;;;;;;5093956;28;20209;-69
2022/03/12 10:03:49;;;;;;;1999.90;999.90;;;14.40;99.90;;;;;;5094272;28;20210;-69
2022/03/12 10:06:15;;;;;;;1999.90;999.90;;;14.40;99.90;;;;;;5093604;28;20483;-69
2022/03/12 10:08:42;;;;;;;1999.90;999.90;;;14.50;99.90;;;;;;5093618;28;20404;-70
2022/03/12 10:11:08;;;;;;;1999.90;999.90;;;14.70;99.90;;;;;;5093937;28;20167;-71
2022/03/12 10:13:34;;;;;;;1999.90;999.90;;;14.60;99.90;;;;;;5094333;28;20433;-69
2022/03/12 10:15:59;;;;;;;1999.90;999.90;;;14.60;99.90;;;;;;5093812;28;20199;-69
2022/03/12 10:18:28;;;;;;;1999.90;999.90;;;14.60;99.90;;;;;;5093958;28;20467;-70
2022/03/12 10:20:57;;;;;;;1999.90;999.90;;;14.70;99.90;;;;;;5093801;28;20234;-71
2022/03/12 10:23:23;;;;;;;1999.90;999.90;;;14.70;99.90;;;;;;5093701;28;20409;-71
2022/03/12 10:25:50;;;;;;;1999.90;999.90;;;14.80;99.90;;;;;;5093136;28;20484;-71
2022/03/12 10:28:15;;;;;;;1999.90;999.90;;;14.80;99.90;;;;;;5093473;28;20544;-71
2022/03/12 10:30:41;;;;;;;1999.90;999.90;;;14.80;99.90;;;;;;5093532;28;20501;-71
2022/03/12 10:33:07;;;;;;;1999.90;999.90;;;14.70;99.90;;;;;;5093538;28;20618;-72
2022/03/12 10:35:37;;;;;;;1999.90;999.90;;;14.70;99.90;;;;;;5093224;28;20414;-71
2022/03/12 10:38:10;;;;;;;1999.90;999.90;;;14.80;99.90;;;;;;5093245;28;20661;-71
2022/03/12 10:40:36;;;;;;;1999.90;999.90;;;14.90;99.90;;;;;;5094800;28;20458;-71
2022/03/12 10:43:07;;;;;;;1999.90;999.90;;;15.00;99.90;;;;;;5090161;28;20764;-71
2022/03/12 10:45:47;;;;;;;1999.90;999.90;;;15.10;99.90;;;;;;5092167;28;20513;-72
2022/03/12 10:48:18;;;;;;;1999.90;999.90;;;15.20;99.90;;;;;;5092466;28;20796;-72
2022/03/12 10:50:46;;;;;;;1999.90;999.90;;;15.20;99.90;;;;;;5092248;28;20453;-72
2022/03/12 10:53:13;;;;;;;1999.90;999.90;;;15.30;99.90;;;;;;5092606;28;20406;-72
2022/03/12 10:55:50;;;;;;;1999.90;999.90;;;15.40;99.90;;;;;;5093588;28;20777;-71
2022/03/12 10:58:23;;;;;;;1999.90;999.90;;;15.40;99.90;;;;;;5093544;28;20424;-71
2022/03/12 11:00:55;;;;;;;1999.90;999.90;;;15.60;99.90;;;;;;5093773;28;20455;-71
2022/03/12 11:03:27;;;;;;;1999.90;999.90;;;15.80;99.90;;;;;;5093063;28;20406;-71
2022/03/12 11:05:55;;;;;;;1999.90;999.90;;;15.90;99.90;;;;;;5093084;28;20429;-71
2022/03/12 11:08:29;;;;;;;1999.90;999.90;;;15.90;99.90;;;;;;5109000;28;20827;-71
2022/03/12 11:10:59;;;;;;;1999.90;999.90;;;16.00;99.90;;;;;;5092604;28;20462;-71
2022/03/12 11:16:35;;;;;;;1999.90;999.90;;;15.80;99.90;;;;;;5093180;28;20406;-71
2022/03/12 11:19:02;;;;;;;1999.90;999.90;;;15.70;99.90;;;;;;5093055;28;20773;-71
2022/03/12 11:21:37;;;;;;;1999.90;999.90;;;15.70;99.90;;;;;;5093579;28;20405;-71
2022/03/12 11:24:17;;;;;;;1999.90;999.90;;;15.60;99.90;;;;;;5094034;28;20880;-71
2022/03/12 11:26:55;;;;;;;1999.90;999.90;;;15.60;99.90;;;;;;5093763;28;20507;-71
2022/03/12 11:29:23;;;;;;;1999.90;999.90;;;15.80;99.90;;;;;;5094459;28;20421;-71
2022/03/12 11:31:57;;;;;;;1999.90;999.90;;;16.00;99.90;;;;;;5094789;28;20419;-71
2022/03/12 11:35:02;;;;;;;1999.90;999.90;;;16.10;99.90;;;;;;5094590;28;20412;-71
2022/03/12 11:37:27;;;;;;;1999.90;999.90;;;16.20;99.90;;;;;;5084893;28;20456;-71
2022/03/12 11:39:59;;;;;;;1999.90;999.90;;;16.30;99.90;;;;;;5094252;28;20458;-71
2022/03/12 11:42:51;;;;;;;1999.90;999.90;;;16.30;99.90;;;;;;5093796;28;20176;-71
2022/03/12 11:45:20;;;;;;;1999.90;999.90;;;16.40;99.90;;;;;;5109371;28;20415;-71
2022/03/12 11:47:46;;;;;;;1999.90;999.90;;;16.50;99.90;;;;;;5111630;28;20415;-72
2022/03/12 11:50:17;;;;;;;1999.90;999.90;;;16.60;99.90;;;;;;5112135;28;20437;-71
2022/03/12 11:52:44;;;;;;;1999.90;999.90;;;16.70;99.90;;;;;;5111738;27;20418;-71
2022/03/12 11:55:22;;;;;;;1999.90;999.90;;;17.00;99.90;;;;;;5111293;28;20502;-71
2022/03/12 11:57:50;;;;;;;1999.90;999.90;;;17.00;99.90;;;;;;5112426;28;20428;-71
2022/03/12 12:00:22;;;;;;;1999.90;999.90;;;17.20;99.90;;;;;;5111980;28;20451;-71
2022/03/12 12:02:48;;;;;;;1999.90;999.90;;;17.00;99.90;;;;;;5111574;28;20480;-71
2022/03/12 12:05:17;;;;;;;1999.90;999.90;;;17.00;99.90;;;;;;5110655;28;20514;-71
2022/03/12 12:07:45;;;;;;;1999.90;999.90;;;17.20;99.90;;;;;;5111943;28;20764;-71